Time;durP1;ratioP1;P1;durP2;ratioP2;P2;SDS_P1;SDS_P2;PMS_P1;PMS_P2;Temp;Humidity;BMP_temperature;BMP_pressure;BME280_temperature;BME280_humidity;BME280_pressure;Samples;Min_cycle;Max_cycle;Signal;HPM_P1;HPM_P2
2022/01/21 00:00:50;;;;;;;20.65;7.38;;;;;;;0.32;92.46;103308.56;5051806;28;20048;-52
2022/01/21 00:03:16;;;;;;;19.90;7.97;;;;;;;0.35;92.61;103308.19;5051930;28;20064;-53
2022/01/21 00:05:41;;;;;;;20.73;7.97;;;;;;;0.35;92.66;103311.78;5050416;28;20027;-52
2022/01/21 00:08:06;;;;;;;21.60;8.20;;;;;;;0.34;92.66;103306.47;5051720;28;20115;-53
2022/01/21 00:10:31;;;;;;;25.02;8.40;;;;;;;0.43;92.41;103310.84;5051335;28;20136;-53
2022/01/21 00:12:58;;;;;;;23.63;8.82;;;;;;;0.39;92.16;103315.81;5052199;28;20108;-55
2022/01/21 00:15:23;;;;;;;20.67;7.72;;;;;;;0.35;92.20;103313.63;5052401;28;20055;-56
2022/01/21 00:17:48;;;;;;;20.80;8.45;;;;;;;0.32;92.00;103314.00;5052005;28;20469;-52
2022/01/21 00:31:09;;;;;;;22.15;9.52;;;;;;;0.32;92.35;103306.66;5051783;28;19915;-54
2022/01/21 00:33:34;;;;;;;21.90;8.57;;;;;;;0.26;91.99;103307.38;5050346;28;20100;-54
2022/01/21 00:36:00;;;;;;;23.63;8.95;;;;;;;0.23;91.40;103299.56;5051987;28;20059;-51
2022/01/21 00:38:29;;;;;;;19.75;8.48;;;;;;;0.17;91.75;103306.53;5051619;28;20032;-54
2022/01/21 00:41:01;;;;;;;21.05;8.60;;;;;;;0.07;92.79;103305.91;5055189;28;20032;-55
2022/01/21 00:43:32;;;;;;;20.70;9.10;;;;;;;0.10;92.11;103300.94;5054787;28;20071;-55
2022/01/21 00:46:00;;;;;;;19.38;8.43;;;;;;;0.11;92.33;103307.25;5055592;28;20029;-53
2022/01/21 00:48:26;;;;;;;22.13;8.73;;;;;;;0.06;92.35;103307.78;5054668;28;20021;-54
2022/01/21 00:50:51;;;;;;;18.15;8.02;;;;;;;0.00;92.74;103311.22;5055148;28;20049;-54
2022/01/21 00:53:16;;;;;;;21.92;8.00;;;;;;;0.00;92.96;103313.94;5054732;28;20044;-54
2022/01/21 00:55:42;;;;;;;23.25;8.57;;;;;;;0.03;92.31;103308.13;5055371;28;20059;-51
2022/01/21 00:58:07;;;;;;;21.58;8.00;;;;;;;-0.01;93.06;103309.50;5053344;28;20025;-51
2022/01/21 01:00:33;;;;;;;19.13;8.45;;;;;;;-0.04;93.39;103309.84;5053895;28;20028;-54
2022/01/21 01:03:00;;;;;;;27.17;9.27;;;;;;;-0.04;92.75;103312.56;5054084;28;20025;-52
2022/01/21 01:05:26;;;;;;;21.77;8.38;;;;;;;0.01;92.44;103317.50;5055106;28;20079;-55
2022/01/21 01:07:51;;;;;;;26.05;9.25;;;;;;;0.03;92.23;103310.00;5055176;28;20025;-52
2022/01/21 01:10:24;;;;;;;23.45;8.30;;;;;;;-0.05;93.03;103308.97;5054303;28;20075;-54
2022/01/21 01:13:01;;;;;;;21.87;8.67;;;;;;;-0.04;92.84;103305.25;5054266;28;20461;-51
2022/01/21 01:20:55;;;;;;;21.95;8.32;;;;;;;-0.02;92.46;103314.09;5054335;28;20040;-54
2022/01/21 01:23:28;;;;;;;19.60;7.88;;;;;;;0.04;92.66;103300.81;5054884;28;20025;-54
2022/01/21 01:28:38;;;;;;;21.60;7.80;;;;;;;-0.02;93.56;103305.09;5054741;28;20047;-52
2022/01/21 01:31:04;;;;;;;19.70;7.95;;;;;;;0.02;93.71;103298.25;5052547;28;20025;-51
2022/01/21 01:33:36;;;;;;;22.80;7.90;;;;;;;0.04;93.68;103298.09;5054246;28;20017;-53
2022/01/21 01:36:03;;;;;;;18.48;7.43;;;;;;;0.09;93.46;103287.53;5054032;28;20381;-52
2022/01/21 01:41:15;;;;;;;19.55;7.57;;;;;;;0.17;93.01;103275.75;5054798;28;20072;-52
2022/01/21 01:49:35;;;;;;;19.88;8.57;;;;;;;0.12;92.46;103287.19;5054108;28;20048;-55
2022/01/21 01:52:02;;;;;;;21.60;8.70;;;;;;;0.05;92.83;103294.34;5053376;28;20048;-54
2022/01/21 01:54:30;;;;;;;19.77;7.80;;;;;;;-0.01;92.34;103279.56;5054182;28;20029;-53
2022/01/21 01:56:58;;;;;;;21.13;7.60;;;;;;;-0.02;92.82;103288.75;5053757;28;20476;-54
2022/01/21 01:59:24;;;;;;;21.17;8.35;;;;;;;-0.06;92.67;103288.25;5051992;28;20033;-55
2022/01/21 02:01:55;;;;;;;19.38;7.45;;;;;;;-0.10;93.03;103278.72;5052970;28;20114;-55
2022/01/21 02:04:21;;;;;;;18.98;7.82;;;;;;;-0.11;93.21;103296.09;5052325;28;20033;-54
2022/01/21 02:06:46;;;;;;;22.00;7.70;;;;;;;-0.10;92.85;103295.06;5053546;28;20116;-54
2022/01/21 02:09:11;;;;;;;19.45;7.35;;;;;;;-0.18;93.58;103295.91;5053786;28;20112;-55
2022/01/21 02:11:37;;;;;;;21.17;8.20;;;;;;;-0.23;93.54;103302.91;5053991;28;20071;-54
2022/01/21 02:14:07;;;;;;;19.27;8.10;;;;;;;-0.26;93.85;103301.38;5053062;28;20357;-53
2022/01/21 02:16:41;;;;;;;19.40;8.50;;;;;;;-0.24;93.84;103295.78;5052908;28;20047;-55
2022/01/21 02:21:50;;;;;;;17.02;7.55;;;;;;;-0.29;93.60;103303.59;5053504;28;20039;-56
2022/01/21 02:24:24;;;;;;;19.60;7.38;;;;;;;-0.34;94.23;103280.50;5052678;28;20025;-54
2022/01/21 02:26:51;;;;;;;19.73;7.72;;;;;;;-0.29;94.41;103299.03;5053303;28;20104;-54
2022/01/21 02:29:28;;;;;;;24.42;8.13;;;;;;;-0.39;94.09;103288.31;5053135;28;20044;-54
2022/01/21 02:31:55;;;;;;;18.77;8.10;;;;;;;-0.38;94.10;103294.63;5052530;28;20119;-52
2022/01/21 02:34:20;;;;;;;18.00;7.53;;;;;;;-0.48;94.18;103292.94;5052438;28;20077;-51
2022/01/21 02:36:46;;;;;;;18.48;7.47;;;;;;;-0.41;94.73;103301.22;5052543;28;20367;-53
2022/01/21 02:39:11;;;;;;;20.02;7.90;;;;;;;-0.48;94.94;103295.66;5052774;28;20495;-53
2022/01/21 02:41:37;;;;;;;21.48;7.82;;;;;;;-0.52;94.55;103301.59;5053228;28;20029;-54
2022/01/21 02:44:02;;;;;;;20.02;8.38;;;;;;;-0.57;94.64;103295.81;5053111;28;20041;-54
2022/01/21 02:46:28;;;;;;;20.52;7.72;;;;;;;-0.62;95.18;103301.75;5053578;28;20051;-51
2022/01/21 02:48:53;;;;;;;22.67;8.00;;;;;;;-0.63;95.53;103298.22;5053141;28;20027;-54
2022/01/21 02:51:18;;;;;;;18.95;7.60;;;;;;;-0.60;95.72;103288.00;5053080;28;20545;-52
2022/01/21 02:56:10;;;;;;;16.05;7.00;;;;;;;-0.56;95.37;103300.22;5053265;28;20115;-54
2022/01/21 02:58:36;;;;;;;18.10;7.50;;;;;;;-0.55;96.11;103297.34;5052831;28;20053;-54
2022/01/21 03:01:04;;;;;;;21.48;7.55;;;;;;;-0.54;95.64;103301.75;5052490;28;20471;-53
2022/01/21 03:03:29;;;;;;;19.60;7.20;;;;;;;-0.44;95.43;103301.59;5052864;28;20027;-53
2022/01/21 03:05:54;;;;;;;17.00;7.07;;;;;;;-0.43;95.45;103307.88;5052643;28;20112;-55
2022/01/21 03:08:20;;;;;;;17.35;7.80;;;;;;;-0.49;95.76;103304.81;5052315;28;20036;-53
2022/01/21 03:10:45;;;;;;;15.00;6.68;;;;;;;-0.50;96.06;103303.13;5051631;28;20053;-53
2022/01/21 03:13:11;;;;;;;19.58;6.97;;;;;;;-0.47;95.79;103307.38;5051377;28;20063;-52
2022/01/21 03:15:36;;;;;;;15.65;7.07;;;;;;;-0.40;95.68;103304.81;5051289;28;20480;-55
2022/01/21 03:18:02;;;;;;;13.63;7.38;;;;;;;-0.36;95.69;103298.88;5051567;28;20047;-55
2022/01/21 03:20:27;;;;;;;22.40;7.60;;;;;;;-0.36;95.35;103309.75;5051871;28;20096;-54
2022/01/21 03:22:52;;;;;;;21.38;7.68;;;;;;;-0.37;95.23;103308.03;5052529;28;20488;-55
2022/01/21 03:25:18;;;;;;;17.10;7.03;;;;;;;-0.32;95.71;103307.53;5051431;28;20596;-53
2022/01/21 03:27:43;;;;;;;19.77;6.72;;;;;;;-0.38;95.47;103313.66;5052352;28;20079;-54
2022/01/21 03:30:10;;;;;;;20.15;7.72;;;;;;;-0.35;96.09;103313.31;5051935;28;20112;-55
2022/01/21 03:32:35;;;;;;;16.67;6.75;;;;;;;-0.37;96.11;103312.63;5052353;28;20060;-55
2022/01/21 03:35:00;;;;;;;21.65;7.88;;;;;;;-0.32;95.79;103310.25;5052901;28;20057;-53
2022/01/21 03:37:26;;;;;;;20.00;7.53;;;;;;;-0.28;95.35;103317.03;5052047;28;20029;-51
2022/01/21 03:39:51;;;;;;;18.65;8.20;;;;;;;-0.28;95.68;103319.75;5051548;28;20029;-53
2022/01/21 03:42:16;;;;;;;16.92;7.13;;;;;;;-0.28;96.31;103319.75;5051758;28;20059;-53
2022/01/21 03:44:42;;;;;;;14.90;7.20;;;;;;;-0.25;96.17;103313.97;5052302;28;20029;-53
2022/01/21 03:47:07;;;;;;;19.83;8.57;;;;;;;-0.24;95.82;103318.38;5052337;28;20032;-54
2022/01/21 03:49:41;;;;;;;19.45;7.30;;;;;;;-0.23;95.90;103314.66;5052466;28;20032;-55
2022/01/21 03:52:08;;;;;;;22.77;8.07;;;;;;;-0.22;95.89;103313.63;5052227;28;20049;-52
2022/01/21 03:54:35;;;;;;;18.88;7.45;;;;;;;-0.21;95.79;103328.06;5051964;28;20021;-53
2022/01/21 03:57:01;;;;;;;19.02;7.15;;;;;;;-0.21;95.87;103328.06;5052070;28;20480;-53
2022/01/21 03:59:27;;;;;;;22.23;7.95;;;;;;;-0.25;96.16;103329.44;5051848;28;20066;-52
2022/01/21 04:01:52;;;;;;;17.25;7.45;;;;;;;-0.25;96.22;103327.56;5052424;28;20452;-54
2022/01/21 04:04:17;;;;;;;17.13;7.45;;;;;;;-0.28;96.49;103330.63;5051933;28;20118;-50
2022/01/21 04:06:42;;;;;;;19.08;6.95;;;;;;;-0.35;96.11;103319.59;5052092;28;20025;-55
2022/01/21 04:09:08;;;;;;;19.23;7.68;;;;;;;-0.28;96.23;103327.91;5052130;28;20029;-54
2022/01/21 04:11:33;;;;;;;17.27;6.72;;;;;;;-0.26;96.37;103322.31;5051800;28;20025;-52
2022/01/21 04:13:58;;;;;;;23.95;7.03;;;;;;;-0.28;96.71;103321.63;5051213;28;20029;-50
2022/01/21 04:16:23;;;;;;;22.85;7.25;;;;;;;-0.35;96.57;103318.75;5055464;28;20499;-56
2022/01/21 04:18:49;;;;;;;21.17;7.63;;;;;;;-0.38;97.01;103313.66;5055837;28;20455;-55
2022/01/21 04:21:14;;;;;;;19.35;8.02;;;;;;;-0.42;96.63;103315.00;5055564;28;20021;-53
2022/01/21 04:23:40;;;;;;;19.75;7.78;;;;;;;-0.45;96.56;103315.34;5055073;28;20391;-54
2022/01/21 04:26:05;;;;;;;21.60;8.98;;;;;;;-0.48;97.17;103319.25;5055788;28;20031;-53
2022/01/21 04:28:31;;;;;;;18.40;9.00;;;;;;;-0.52;96.89;103309.75;5055992;28;20035;-55
2022/01/21 04:30:57;;;;;;;22.95;9.00;;;;;;;-0.51;97.01;103316.88;5054621;28;20025;-53
2022/01/21 04:33:22;;;;;;;25.20;9.13;;;;;;;-0.55;97.15;103318.25;5055863;28;20074;-52
2022/01/21 04:35:48;;;;;;;23.70;9.50;;;;;;;-0.55;96.88;103313.66;5055866;28;20029;-51
2022/01/21 04:38:17;;;;;;;21.00;9.00;;;;;;;-0.54;97.11;103317.25;5055659;28;20047;-52
2022/01/21 04:40:52;;;;;;;21.73;8.70;;;;;;;-0.48;97.23;103311.97;5055969;28;20021;-54
2022/01/21 04:48:45;;;;;;;17.75;8.40;;;;;;;-0.47;97.08;103319.09;5055118;28;19970;-53
2022/01/21 04:51:21;;;;;;;16.40;7.90;;;;;;;-0.47;96.96;103307.38;5053392;28;20488;-55
2022/01/21 04:53:48;;;;;;;13.13;7.35;;;;;;;-0.40;96.88;103308.38;5055363;28;20021;-51
2022/01/21 04:56:15;;;;;;;16.45;7.10;;;;;;;-0.45;97.47;103308.06;5055481;28;20025;-54
2022/01/21 04:58:42;;;;;;;17.25;7.93;;;;;;;-0.38;97.08;103309.06;5054933;28;20111;-51
2022/01/21 05:01:08;;;;;;;18.70;8.23;;;;;;;-0.45;97.39;103301.75;5055000;28;20025;-54
2022/01/21 05:03:35;;;;;;;20.67;8.75;;;;;;;-0.43;97.49;103297.84;5054209;28;20115;-53
2022/01/21 05:06:01;;;;;;;17.00;8.00;;;;;;;-0.44;97.51;103298.00;5054756;28;20423;-51
2022/01/21 05:08:33;;;;;;;21.55;8.73;;;;;;;-0.45;97.99;103301.75;5054782;28;20028;-52
2022/01/21 05:11:00;;;;;;;16.88;8.20;;;;;;;-0.40;97.10;103304.81;5054235;28;20068;-53
2022/01/21 05:13:28;;;;;;;19.30;8.38;;;;;;;-0.43;97.54;103297.00;5054373;28;20070;-55
2022/01/21 05:16:07;;;;;;;21.55;8.93;;;;;;;-0.41;97.67;103303.13;5054618;28;20032;-52
2022/01/21 05:18:32;;;;;;;14.88;8.10;;;;;;;-0.42;97.59;103302.25;5054155;28;20041;-52
2022/01/21 05:20:58;;;;;;;19.73;8.02;;;;;;;-0.44;98.18;103307.03;5054069;28;20082;-53
2022/01/21 05:23:23;;;;;;;17.52;7.95;;;;;;;-0.46;98.59;103314.50;5054529;28;20036;-51
2022/01/21 05:25:49;;;;;;;17.55;7.78;;;;;;;-0.45;98.36;103312.63;5053543;28;20035;-53
2022/01/21 05:28:15;;;;;;;17.38;7.93;;;;;;;-0.42;98.59;103315.00;5054335;28;20050;-55
2022/01/21 05:30:40;;;;;;;19.10;7.90;;;;;;;-0.44;98.81;103312.47;5054933;28;20041;-53
2022/01/21 05:33:05;;;;;;;17.88;8.27;;;;;;;-0.42;98.29;103312.28;5054020;28;20025;-52
2022/01/21 05:35:31;;;;;;;18.42;7.45;;;;;;;-0.41;98.74;103303.13;5054573;28;20029;-51
2022/01/21 05:37:56;;;;;;;15.68;8.45;;;;;;;-0.41;98.52;103314.84;5054183;28;20033;-55
2022/01/21 05:40:23;;;;;;;19.35;8.00;;;;;;;-0.45;98.96;103309.91;5054709;28;20459;-54
2022/01/21 05:42:49;;;;;;;17.40;8.95;;;;;;;-0.43;99.00;103310.59;5054726;28;20155;-52
2022/01/21 05:47:58;;;;;;;;;;;;;;;-0.40;98.51;103307.53;5054165;28;20503;-53
2022/01/21 05:50:24;;;;;;;16.43;7.10;;;;;;;-0.41;97.96;103316.72;5054152;28;19908;-54
2022/01/21 05:52:49;;;;;;;15.32;7.35;;;;;;;-0.46;98.92;103319.94;5053868;28;20299;-54
2022/01/21 05:55:16;;;;;;;20.05;8.25;;;;;;;-0.50;98.79;103319.44;5054307;28;20028;-52
2022/01/21 05:57:41;;;;;;;20.35;8.10;;;;;;;-0.44;99.31;103322.50;5053201;28;20029;-54
2022/01/21 06:00:08;;;;;;;16.70;8.10;;;;;;;-0.45;99.19;103332.53;5053631;28;20040;-51
2022/01/21 06:02:33;;;;;;;20.38;8.63;;;;;;;-0.50;98.67;103338.47;5052950;28;20036;-50
2022/01/21 06:04:58;;;;;;;22.45;8.88;;;;;;;-0.49;99.12;103329.31;5053806;28;20032;-52
2022/01/21 06:07:24;;;;;;;21.58;7.88;;;;;;;-0.48;99.32;103321.97;5054077;28;20535;-54
2022/01/21 06:09:49;;;;;;;17.17;8.18;;;;;;;-0.49;99.07;103321.16;5052097;28;20099;-54
2022/01/21 06:12:15;;;;;;;19.50;8.10;;;;;;;-0.51;99.39;103328.63;5053705;28;20538;-54
2022/01/21 06:14:40;;;;;;;19.55;8.00;;;;;;;-0.52;99.28;103336.97;5053575;28;20029;-53
2022/01/21 06:17:06;;;;;;;19.60;7.78;;;;;;;-0.53;99.43;103341.53;5052475;28;20029;-54
2022/01/21 06:19:31;;;;;;;20.27;8.40;;;;;;;-0.56;99.58;103343.75;5052990;28;20017;-51
2022/01/21 06:21:57;;;;;;;18.25;7.50;;;;;;;-0.54;99.24;103341.72;5052857;28;20449;-52
2022/01/21 06:24:22;;;;;;;18.63;8.00;;;;;;;-0.53;99.56;103348.84;5052941;28;20040;-53
2022/01/21 06:26:47;;;;;;;17.95;7.80;;;;;;;-0.51;99.66;103347.66;5052991;28;20086;-54
2022/01/21 06:29:13;;;;;;;18.30;8.40;;;;;;;-0.48;100.00;103347.31;5053674;28;20052;-54
2022/01/21 06:31:38;;;;;;;20.00;7.95;;;;;;;-0.50;99.80;103349.34;5053149;28;20401;-52
2022/01/21 06:34:03;;;;;;;21.02;8.95;;;;;;;-0.40;99.64;103357.34;5052883;28;20129;-54
2022/01/21 06:36:29;;;;;;;21.33;8.90;;;;;;;-0.29;99.30;103364.31;5053886;28;20041;-52
2022/01/21 06:38:54;;;;;;;21.27;7.90;;;;;;;-0.17;99.18;103362.09;5052439;28;20079;-55
2022/01/21 06:41:20;;;;;;;19.73;7.80;;;;;;;-0.11;99.04;103377.72;5053334;28;20060;-53
2022/01/21 06:43:45;;;;;;;18.67;7.60;;;;;;;-0.08;99.63;103376.50;5052414;28;20032;-52
2022/01/21 06:46:11;;;;;;;17.67;7.10;;;;;;;-0.05;99.48;103384.34;5053266;28;20036;-54
2022/01/21 06:48:37;;;;;;;16.23;6.72;;;;;;;0.01;99.65;103371.94;5052922;28;20021;-55
2022/01/21 06:51:02;;;;;;;16.83;7.43;;;;;;;0.08;99.58;103378.38;5053242;28;20413;-54
2022/01/21 06:53:28;;;;;;;18.55;7.30;;;;;;;0.12;98.85;103368.84;5053189;28;20032;-54
2022/01/21 06:55:54;;;;;;;18.25;6.90;;;;;;;0.18;99.12;103372.75;5053172;28;20029;-55
2022/01/21 06:58:19;;;;;;;17.25;6.35;;;;;;;0.24;99.51;103377.50;5052746;28;20025;-54
2022/01/21 07:00:44;;;;;;;19.48;6.72;;;;;;;0.26;99.24;103391.78;5052874;28;20028;-53
2022/01/21 07:03:09;;;;;;;19.42;7.75;;;;;;;0.27;98.70;103383.44;5053080;28;20086;-52
2022/01/21 07:05:35;;;;;;;15.88;6.40;;;;;;;0.32;98.86;103401.97;5053025;28;20033;-55
2022/01/21 07:08:01;;;;;;;14.70;6.22;;;;;;;0.40;98.19;103392.94;5052780;28;20032;-54
2022/01/21 07:10:29;;;;;;;18.05;6.57;;;;;;;0.50;97.97;103398.16;5051622;28;20021;-54
2022/01/21 07:12:55;;;;;;;18.85;7.05;;;;;;;0.46;98.34;103387.66;5052592;28;20255;-55
2022/01/21 07:15:20;;;;;;;18.60;6.50;;;;;;;0.54;98.36;103384.03;5052919;28;20040;-54
2022/01/21 07:17:47;;;;;;;19.02;6.95;;;;;;;0.55;98.07;103402.06;5051238;28;20470;-55
2022/01/21 07:20:13;;;;;;;15.43;6.68;;;;;;;0.53;98.52;103403.28;5052636;28;20021;-53
2022/01/21 07:22:38;;;;;;;17.38;6.90;;;;;;;0.58;98.23;103407.19;5051402;28;20060;-53
2022/01/21 07:25:05;;;;;;;18.63;7.18;;;;;;;0.62;98.06;103399.50;5052297;28;20060;-55
2022/01/21 07:27:30;;;;;;;16.05;7.07;;;;;;;0.69;97.23;103402.38;5052819;28;20036;-51
2022/01/21 07:29:55;;;;;;;19.70;8.27;;;;;;;0.69;97.04;103410.53;5052286;28;20029;-55
2022/01/21 07:32:21;;;;;;;16.67;7.57;;;;;;;0.62;97.17;103418.56;5052844;28;20059;-54
2022/01/21 07:34:46;;;;;;;20.13;7.63;;;;;;;0.61;97.39;103416.88;5052380;28;20409;-55
2022/01/21 07:37:11;;;;;;;19.23;8.20;;;;;;;0.68;97.05;103423.31;5052813;28;20036;-52
2022/01/21 07:39:37;;;;;;;20.60;8.35;;;;;;;0.67;97.44;103427.06;5052859;28;20075;-51
2022/01/21 07:42:03;;;;;;;19.92;8.30;;;;;;;0.72;97.04;103411.03;5052656;28;20112;-54
2022/01/21 07:44:28;;;;;;;17.60;8.10;;;;;;;0.78;96.99;103414.94;5052828;28;20029;-52
2022/01/21 07:46:53;;;;;;;22.00;7.85;;;;;;;0.76;97.20;103401.47;5052595;28;20048;-53
2022/01/21 07:49:18;;;;;;;19.85;8.00;;;;;;;0.75;97.81;103401.66;5052536;28;20029;-54
2022/01/21 07:51:44;;;;;;;19.55;7.50;;;;;;;0.79;97.19;103400.28;5056822;28;20053;-55
2022/01/21 07:54:10;;;;;;;20.80;7.72;;;;;;;0.88;96.71;103396.50;5056315;28;20083;-51
2022/01/21 07:56:36;;;;;;;20.17;8.30;;;;;;;0.86;97.55;103398.53;5056426;28;20465;-55
2022/01/21 07:59:04;;;;;;;22.27;7.95;;;;;;;0.84;97.35;103378.78;5056575;28;20032;-51
2022/01/21 08:01:30;;;;;;;18.52;7.85;;;;;;;0.77;97.81;103381.38;5056055;28;20104;-56
2022/01/21 08:03:55;;;;;;;20.75;7.70;;;;;;;0.74;97.93;103384.47;5055112;28;20125;-55
2022/01/21 08:06:20;;;;;;;20.50;8.05;;;;;;;0.71;97.47;103376.63;5055917;28;20025;-53
2022/01/21 08:08:46;;;;;;;22.38;8.27;;;;;;;0.67;97.75;103369.00;5056195;28;20049;-55
2022/01/21 08:11:11;;;;;;;24.63;8.05;;;;;;;0.65;97.82;103369.19;5056089;28;20468;-54
2022/01/21 08:13:36;;;;;;;21.83;7.80;;;;;;;0.67;97.33;103378.00;5055920;28;20142;-51
2022/01/21 08:16:01;;;;;;;22.52;8.30;;;;;;;0.67;97.04;103382.63;5055449;28;20025;-54
2022/01/21 08:18:27;;;;;;;20.85;8.30;;;;;;;0.65;97.85;103374.63;5055861;28;20024;-51
2022/01/21 08:20:52;;;;;;;22.05;8.82;;;;;;;0.71;97.58;103368.47;5056083;28;20541;-55
2022/01/21 08:23:18;;;;;;;23.52;8.85;;;;;;;0.68;97.45;103362.53;5056083;28;20029;-54
2022/01/21 08:25:44;;;;;;;20.63;8.45;;;;;;;0.67;97.48;103371.72;5055222;28;20021;-54
2022/01/21 08:28:10;;;;;;;23.25;8.52;;;;;;;0.69;98.48;103367.78;5054239;28;20048;-55
2022/01/21 08:30:37;;;;;;;21.98;8.15;;;;;;;0.71;97.75;103371.19;5055406;28;20100;-54
2022/01/21 08:33:03;;;;;;;17.85;7.68;;;;;;;0.77;98.28;103377.81;5056003;28;20029;-53
2022/01/21 08:35:29;;;;;;;21.58;8.25;;;;;;;0.77;97.79;103388.72;5055556;28;20033;-54
2022/01/21 08:37:54;;;;;;;20.00;8.02;;;;;;;0.82;97.69;103396.34;5053661;28;20021;-54
2022/01/21 08:40:21;;;;;;;22.83;8.23;;;;;;;0.85;97.78;103394.13;5055058;28;20061;-54
2022/01/21 08:42:47;;;;;;;21.33;8.82;;;;;;;0.87;97.78;103383.91;5055171;28;20293;-53
2022/01/21 08:45:13;;;;;;;22.23;8.80;;;;;;;0.90;97.78;103382.69;5055517;28;20021;-53
2022/01/21 08:47:41;;;;;;;21.38;8.45;;;;;;;0.89;97.94;103375.53;5055668;28;20064;-53
2022/01/21 08:50:10;;;;;;;22.67;8.40;;;;;;;0.96;97.28;103389.28;5055752;28;20025;-55
2022/01/21 08:52:40;;;;;;;19.27;8.10;;;;;;;0.99;97.41;103392.50;5054521;28;20124;-53
2022/01/21 08:55:08;;;;;;;19.50;7.40;;;;;;;1.00;96.96;103387.91;5054542;28;20464;-52
2022/01/21 08:57:36;;;;;;;21.23;7.22;;;;;;;1.08;97.29;103393.31;5055591;28;20021;-54
2022/01/21 09:00:04;;;;;;;20.08;8.02;;;;;;;1.02;97.06;103394.88;5055310;28;20033;-53
2022/01/21 09:02:29;;;;;;;20.90;7.45;;;;;;;1.03;96.64;103393.00;5055482;28;20029;-52
2022/01/21 09:04:55;;;;;;;17.50;6.72;;;;;;;1.06;97.33;103379.84;5055279;28;20090;-54
2022/01/21 09:07:20;;;;;;;18.85;6.93;;;;;;;1.09;96.79;103370.47;5055593;28;20104;-54
2022/01/21 09:09:46;;;;;;;19.60;7.45;;;;;;;1.11;96.67;103362.97;5055142;28;20112;-52
2022/01/21 09:12:11;;;;;;;20.00;7.43;;;;;;;1.18;96.97;103369.38;5054017;28;20032;-52
2022/01/21 09:14:36;;;;;;;21.67;7.47;;;;;;;1.28;96.74;103368.28;5054638;28;20029;-53
2022/01/21 09:17:02;;;;;;;17.98;7.47;;;;;;;1.33;96.24;103369.44;5054356;28;20065;-52
2022/01/21 09:19:28;;;;;;;18.00;6.95;;;;;;;1.35;96.15;103370.13;5054237;28;20021;-55
2022/01/21 09:21:54;;;;;;;23.17;7.70;;;;;;;1.39;96.43;103368.75;5055006;28;20107;-55
2022/01/21 09:24:20;;;;;;;18.90;7.18;;;;;;;1.46;96.31;103366.13;5055150;28;20052;-53
2022/01/21 09:26:46;;;;;;;17.58;6.82;;;;;;;1.53;95.69;103364.38;5053888;28;20489;-52
2022/01/21 09:29:12;;;;;;;18.58;7.50;;;;;;;1.58;95.31;103369.28;5055081;28;20106;-55
2022/01/21 09:31:38;;;;;;;20.27;6.97;;;;;;;1.62;96.05;103375.22;5055092;28;20053;-53
2022/01/21 09:34:05;;;;;;;18.75;6.82;;;;;;;1.70;95.26;103377.88;5054706;28;20453;-54
2022/01/21 09:36:32;;;;;;;19.35;7.88;;;;;;;1.79;94.44;103379.50;5054703;28;20035;-53
2022/01/21 09:38:57;;;;;;;19.02;6.70;;;;;;;1.84;94.67;103378.94;5054706;28;20488;-54
2022/01/21 09:41:23;;;;;;;19.77;6.80;;;;;;;1.87;94.23;103393.06;5054635;28;20024;-52
2022/01/21 09:43:52;;;;;;;24.42;8.10;;;;;;;1.89;94.08;103394.75;5054553;28;20052;-54
2022/01/21 09:46:18;;;;;;;22.85;7.00;;;;;;;1.89;94.41;103390.13;5054925;28;20021;-55
2022/01/21 09:48:53;;;;;;;19.23;6.63;;;;;;;1.96;95.09;103384.78;5054666;28;20492;-52
2022/01/21 09:51:19;;;;;;;21.13;6.88;;;;;;;2.02;94.59;103384.06;5054630;28;20079;-56
2022/01/21 09:53:45;;;;;;;20.10;6.88;;;;;;;2.12;94.35;103389.25;5054690;28;20067;-56
2022/01/21 09:56:11;;;;;;;17.65;6.18;;;;;;;2.19;94.36;103401.13;5054414;28;20036;-55
2022/01/21 09:58:40;;;;;;;19.95;6.88;;;;;;;2.21;93.80;103396.31;5054486;28;20032;-53
2022/01/21 10:01:06;;;;;;;18.30;6.45;;;;;;;2.32;93.56;103397.72;5054417;28;20054;-54
2022/01/21 10:03:33;;;;;;;20.35;7.18;;;;;;;2.40;93.57;103402.25;5054204;28;20021;-54
2022/01/21 10:06:01;;;;;;;20.83;6.72;;;;;;;2.41;93.88;103402.06;5054149;28;20035;-54
2022/01/21 10:08:28;;;;;;;17.63;6.55;;;;;;;2.56;92.40;103413.00;5054208;28;20476;-56
2022/01/21 10:10:53;;;;;;;14.50;5.70;;;;;;;2.62;91.86;103423.19;5054200;28;20078;-55
2022/01/21 10:13:20;;;;;;;22.38;6.35;;;;;;;2.61;91.91;103416.03;5053419;28;20108;-56
2022/01/21 10:15:47;;;;;;;17.80;6.10;;;;;;;2.74;91.57;103436.38;5053998;28;20029;-56
2022/01/21 10:18:21;;;;;;;19.98;6.50;;;;;;;2.84;90.95;103444.28;5053743;28;20083;-53
2022/01/21 10:21:11;;;;;;;19.35;6.30;;;;;;;2.92;91.19;103431.38;5053951;28;20542;-54
2022/01/21 10:23:41;;;;;;;18.35;5.85;;;;;;;3.01;89.95;103432.09;5054292;28;20029;-56
2022/01/21 10:26:10;;;;;;;20.55;5.90;;;;;;;3.09;89.47;103431.97;5053720;28;20036;-55
2022/01/21 10:28:38;;;;;;;17.90;5.60;;;;;;;3.19;89.58;103428.09;5053700;28;20032;-54
2022/01/21 10:31:16;;;;;;;16.83;6.10;;;;;;;3.25;89.03;103422.72;5053282;28;20025;-53
2022/01/21 10:33:51;;;;;;;19.80;5.88;;;;;;;3.43;87.09;103443.31;5053563;28;20096;-55
2022/01/21 10:36:30;;;;;;;19.10;5.90;;;;;;;3.52;87.46;103431.19;5053905;28;20066;-54
2022/01/21 10:39:11;;;;;;;17.52;6.40;;;;;;;3.64;87.00;103438.91;5053870;28;20029;-55
2022/01/21 10:41:46;;;;;;;21.25;5.93;;;;;;;3.78;87.51;103435.22;5054257;28;20487;-54
2022/01/21 10:44:17;;;;;;;19.08;5.93;;;;;;;3.81;86.96;103418.41;5053835;28;20033;-55
2022/01/21 10:47:00;;;;;;;17.45;5.90;;;;;;;3.99;85.27;103439.00;5053609;28;20445;-54
2022/01/21 10:49:25;;;;;;;18.05;5.72;;;;;;;4.07;85.91;103430.63;5053329;28;20364;-55
2022/01/21 10:51:51;;;;;;;19.23;6.43;;;;;;;4.19;86.77;103429.06;5052434;28;20056;-54
2022/01/21 10:54:29;;;;;;;17.73;6.18;;;;;;;4.33;85.62;103421.78;5052846;28;20372;-52
2022/01/21 10:57:14;;;;;;;17.50;6.30;;;;;;;4.36;85.72;103421.38;5052462;28;20036;-52
2022/01/21 10:59:58;;;;;;;19.10;6.22;;;;;;;4.32;86.31;103421.97;5053402;28;20025;-53
2022/01/21 11:02:41;;;;;;;20.10;6.55;;;;;;;4.27;85.70;103428.06;5053058;28;20044;-51
2022/01/21 11:05:16;;;;;;;21.30;6.70;;;;;;;4.16;85.79;103420.38;5053094;28;20056;-53
2022/01/21 11:07:54;;;;;;;16.55;5.95;;;;;;;4.24;86.91;103411.19;5053399;28;20384;-54
2022/01/21 11:10:31;;;;;;;18.25;6.88;;;;;;;4.25;87.60;103397.25;5053218;28;20083;-54
2022/01/21 11:12:56;;;;;;;17.90;6.10;;;;;;;4.35;87.33;103394.16;5052510;28;20487;-54
2022/01/21 11:15:22;;;;;;;17.52;6.88;;;;;;;4.45;87.35;103394.63;5052910;28;20025;-55
2022/01/21 11:17:59;;;;;;;16.08;6.32;;;;;;;4.58;86.36;103393.03;5052939;28;20108;-54
2022/01/21 11:20:39;;;;;;;19.08;6.60;;;;;;;4.51;86.13;103382.88;5053005;28;20017;-56
2022/01/21 11:23:06;;;;;;;20.88;7.05;;;;;;;4.52;87.05;103384.59;5053007;28;20033;-55
2022/01/21 11:25:44;;;;;;;14.40;6.25;;;;;;;4.58;86.90;103382.06;5052135;28;20025;-55
2022/01/21 11:28:11;;;;;;;19.17;6.97;;;;;;;4.53;86.80;103379.94;5052809;28;20044;-53
2022/01/21 11:30:36;;;;;;;20.27;7.07;;;;;;;4.50;86.94;103380.31;5052614;28;20511;-55
2022/01/21 11:33:02;;;;;;;19.27;6.93;;;;;;;4.37;88.00;103384.69;5052464;28;20021;-55
2022/01/21 11:35:28;;;;;;;20.08;6.82;;;;;;;4.34;88.42;103384.25;5052633;28;20025;-54
2022/01/21 11:37:54;;;;;;;19.23;6.75;;;;;;;4.24;88.79;103392.00;5052813;28;20037;-56
2022/01/21 11:40:21;;;;;;;19.83;6.78;;;;;;;4.28;88.90;103385.06;5052811;28;20028;-55
2022/01/21 11:42:47;;;;;;;20.73;7.10;;;;;;;4.36;89.31;103384.88;5052623;28;20036;-53
2022/01/21 11:45:43;;;;;;;22.27;6.57;;;;;;;4.39;88.66;103383.66;5052576;28;20032;-51
2022/01/21 11:50:45;;;;;;;18.95;6.70;;;;;;;4.51;88.39;103365.56;5050294;28;20041;-51
2022/01/21 11:53:11;;;;;;;17.08;6.65;;;;;;;4.57;88.55;103367.53;5050561;28;20047;-55
2022/01/21 11:55:46;;;;;;;24.98;8.07;;;;;;;4.52;88.78;103362.66;5050421;28;20029;-53
2022/01/21 11:58:19;;;;;;;19.50;6.03;;;;;;;4.68;88.79;103374.31;5050350;28;20111;-56
2022/01/21 12:00:47;;;;;;;24.58;7.25;;;;;;;4.70;88.69;103355.75;5050438;28;20058;-53
2022/01/21 12:03:13;;;;;;;23.40;6.40;;;;;;;4.83;88.73;103363.19;5050330;28;20036;-53
2022/01/21 12:05:39;;;;;;;19.27;6.85;;;;;;;4.81;88.00;103355.19;5050148;28;20033;-53